sensor_id;sensor_type;location;lat;lon;timestamp;P1;durP1;ratioP1;P2;durP2;ratioP2
46014;SDS011;36844;51.898;-0.874;2024-02-04T00:01:13;8.43;;;4.10;;
46014;SDS011;36844;51.898;-0.874;2024-02-04T00:03:38;4.57;;;2.53;;
46014;SDS011;36844;51.898;-0.874;2024-02-04T00:06:04;5.25;;;3.38;;
46014;SDS011;36844;51.898;-0.874;2024-02-04T00:08:29;6.40;;;2.92;;
46014;SDS011;36844;51.898;-0.874;2024-02-04T00:10:55;5.30;;;3.05;;
46014;SDS011;36844;51.898;-0.874;2024-02-04T00:13:20;6.20;;;3.88;;
46014;SDS011;36844;51.898;-0.874;2024-02-04T00:15:46;5.65;;;3.00;;
46014;SDS011;36844;51.898;-0.874;2024-02-04T00:18:11;4.25;;;2.72;;
46014;SDS011;36844;51.898;-0.874;2024-02-04T00:20:36;5.25;;;2.78;;
46014;SDS011;36844;51.898;-0.874;2024-02-04T00:23:02;6.53;;;3.22;;
46014;SDS011;36844;51.898;-0.874;2024-02-04T00:25:27;4.65;;;2.70;;
46014;SDS011;36844;51.898;-0.874;2024-02-04T00:27:54;6.13;;;2.83;;
46014;SDS011;36844;51.898;-0.874;2024-02-04T00:30:19;5.32;;;2.83;;
46014;SDS011;36844;51.898;-0.874;2024-02-04T00:32:44;3.83;;;2.50;;
46014;SDS011;36844;51.898;-0.874;2024-02-04T00:35:10;4.20;;;2.20;;
46014;SDS011;36844;51.898;-0.874;2024-02-04T00:37:35;5.25;;;2.53;;
46014;SDS011;36844;51.898;-0.874;2024-02-04T00:40:00;5.10;;;2.42;;
46014;SDS011;36844;51.898;-0.874;2024-02-04T00:42:25;4.10;;;2.30;;
46014;SDS011;36844;51.898;-0.874;2024-02-04T00:44:51;5.18;;;2.92;;
46014;SDS011;36844;51.898;-0.874;2024-02-04T00:47:16;4.65;;;2.40;;
46014;SDS011;36844;51.898;-0.874;2024-02-04T00:49:41;3.95;;;2.42;;
46014;SDS011;36844;51.898;-0.874;2024-02-04T00:52:07;5.88;;;2.70;;
46014;SDS011;36844;51.898;-0.874;2024-02-04T00:54:32;3.50;;;2.08;;
46014;SDS011;36844;51.898;-0.874;2024-02-04T00:56:58;3.13;;;1.90;;
46014;SDS011;36844;51.898;-0.874;2024-02-04T00:59:24;3.13;;;1.98;;
46014;SDS011;36844;51.898;-0.874;2024-02-04T01:01:49;4.35;;;2.55;;
46014;SDS011;36844;51.898;-0.874;2024-02-04T01:04:15;3.17;;;1.85;;
46014;SDS011;36844;51.898;-0.874;2024-02-04T01:06:40;3.65;;;2.03;;
46014;SDS011;36844;51.898;-0.874;2024-02-04T01:09:05;2.97;;;1.88;;
46014;SDS011;36844;51.898;-0.874;2024-02-04T01:11:31;3.22;;;1.92;;
46014;SDS011;36844;51.898;-0.874;2024-02-04T01:13:57;3.83;;;1.92;;
46014;SDS011;36844;51.898;-0.874;2024-02-04T01:16:22;2.92;;;1.83;;
46014;SDS011;36844;51.898;-0.874;2024-02-04T01:18:47;4.03;;;2.00;;
46014;SDS011;36844;51.898;-0.874;2024-02-04T01:21:13;3.30;;;1.83;;
46014;SDS011;36844;51.898;-0.874;2024-02-04T01:23:38;4.18;;;2.17;;
46014;SDS011;36844;51.898;-0.874;2024-02-04T01:26:03;4.60;;;2.35;;
46014;SDS011;36844;51.898;-0.874;2024-02-04T01:28:29;3.72;;;1.95;;
46014;SDS011;36844;51.898;-0.874;2024-02-04T01:30:54;3.30;;;2.17;;
46014;SDS011;36844;51.898;-0.874;2024-02-04T01:33:20;3.13;;;1.63;;
46014;SDS011;36844;51.898;-0.874;2024-02-04T01:35:45;3.00;;;1.83;;
46014;SDS011;36844;51.898;-0.874;2024-02-04T01:38:10;3.25;;;2.13;;
46014;SDS011;36844;51.898;-0.874;2024-02-04T01:40:36;3.42;;;2.13;;
46014;SDS011;36844;51.898;-0.874;2024-02-04T01:43:01;2.85;;;1.58;;
46014;SDS011;36844;51.898;-0.874;2024-02-04T01:45:26;2.60;;;1.70;;
46014;SDS011;36844;51.898;-0.874;2024-02-04T01:47:51;2.97;;;1.83;;
46014;SDS011;36844;51.898;-0.874;2024-02-04T01:50:19;2.72;;;1.70;;
46014;SDS011;36844;51.898;-0.874;2024-02-04T01:52:44;2.17;;;1.30;;
46014;SDS011;36844;51.898;-0.874;2024-02-04T01:55:10;2.42;;;1.45;;
46014;SDS011;36844;51.898;-0.874;2024-02-04T01:57:36;3.70;;;2.00;;
46014;SDS011;36844;51.898;-0.874;2024-02-04T02:00:02;2.75;;;1.67;;
46014;SDS011;36844;51.898;-0.874;2024-02-04T02:02:29;3.03;;;1.67;;
46014;SDS011;36844;51.898;-0.874;2024-02-04T02:04:55;3.67;;;1.98;;
46014;SDS011;36844;51.898;-0.874;2024-02-04T02:07:21;2.63;;;1.73;;
46014;SDS011;36844;51.898;-0.874;2024-02-04T02:09:49;2.38;;;1.80;;
46014;SDS011;36844;51.898;-0.874;2024-02-04T02:12:16;1.80;;;1.30;;
46014;SDS011;36844;51.898;-0.874;2024-02-04T02:14:48;2.17;;;1.40;;
46014;SDS011;36844;51.898;-0.874;2024-02-04T02:17:30;2.38;;;1.35;;
46014;SDS011;36844;51.898;-0.874;2024-02-04T02:20:10;2.83;;;1.48;;
46014;SDS011;36844;51.898;-0.874;2024-02-04T02:25:27;2.42;;;1.20;;
46014;SDS011;36844;51.898;-0.874;2024-02-04T02:27:54;2.72;;;1.77;;
46014;SDS011;36844;51.898;-0.874;2024-02-04T02:30:20;1.95;;;1.17;;
46014;SDS011;36844;51.898;-0.874;2024-02-04T02:32:45;2.85;;;1.65;;
46014;SDS011;36844;51.898;-0.874;2024-02-04T02:35:12;2.45;;;1.67;;
46014;SDS011;36844;51.898;-0.874;2024-02-04T02:37:40;2.80;;;1.60;;
46014;SDS011;36844;51.898;-0.874;2024-02-04T02:42:38;2.10;;;1.48;;
46014;SDS011;36844;51.898;-0.874;2024-02-04T02:45:08;2.58;;;1.77;;
46014;SDS011;36844;51.898;-0.874;2024-02-04T02:47:34;2.63;;;1.75;;
46014;SDS011;36844;51.898;-0.874;2024-02-04T02:50:01;1.55;;;1.00;;
46014;SDS011;36844;51.898;-0.874;2024-02-04T02:52:26;2.90;;;1.70;;
46014;SDS011;36844;51.898;-0.874;2024-02-04T02:54:52;2.53;;;1.27;;
46014;SDS011;36844;51.898;-0.874;2024-02-04T02:57:17;2.50;;;1.10;;
46014;SDS011;36844;51.898;-0.874;2024-02-04T02:59:42;2.10;;;1.30;;
46014;SDS011;36844;51.898;-0.874;2024-02-04T03:02:08;2.92;;;1.35;;
46014;SDS011;36844;51.898;-0.874;2024-02-04T03:04:33;2.75;;;1.73;;
46014;SDS011;36844;51.898;-0.874;2024-02-04T03:06:59;3.13;;;1.65;;
46014;SDS011;36844;51.898;-0.874;2024-02-04T03:09:24;1.98;;;1.10;;
46014;SDS011;36844;51.898;-0.874;2024-02-04T03:11:50;1.85;;;1.38;;
46014;SDS011;36844;51.898;-0.874;2024-02-04T03:14:15;2.42;;;1.42;;
46014;SDS011;36844;51.898;-0.874;2024-02-04T03:16:43;2.42;;;1.40;;
46014;SDS011;36844;51.898;-0.874;2024-02-04T03:19:09;3.08;;;1.25;;
46014;SDS011;36844;51.898;-0.874;2024-02-04T03:21:34;2.88;;;0.88;;
46014;SDS011;36844;51.898;-0.874;2024-02-04T03:24:00;2.00;;;1.23;;
46014;SDS011;36844;51.898;-0.874;2024-02-04T03:26:25;3.33;;;1.73;;
46014;SDS011;36844;51.898;-0.874;2024-02-04T03:28:50;1.63;;;0.95;;
46014;SDS011;36844;51.898;-0.874;2024-02-04T03:31:19;1.40;;;0.95;;
46014;SDS011;36844;51.898;-0.874;2024-02-04T03:33:48;2.40;;;0.98;;
46014;SDS011;36844;51.898;-0.874;2024-02-04T03:36:20;1.20;;;1.00;;
46014;SDS011;36844;51.898;-0.874;2024-02-04T03:38:48;1.30;;;0.77;;
46014;SDS011;36844;51.898;-0.874;2024-02-04T03:41:14;1.00;;;0.68;;
46014;SDS011;36844;51.898;-0.874;2024-02-04T03:43:39;1.13;;;0.90;;
46014;SDS011;36844;51.898;-0.874;2024-02-04T03:46:05;2.58;;;1.13;;
46014;SDS011;36844;51.898;-0.874;2024-02-04T03:48:30;2.30;;;1.30;;
46014;SDS011;36844;51.898;-0.874;2024-02-04T03:50:55;1.40;;;0.93;;
46014;SDS011;36844;51.898;-0.874;2024-02-04T03:53:20;0.75;;;0.68;;
46014;SDS011;36844;51.898;-0.874;2024-02-04T03:55:48;1.48;;;0.80;;
46014;SDS011;36844;51.898;-0.874;2024-02-04T03:58:13;1.60;;;0.90;;
46014;SDS011;36844;51.898;-0.874;2024-02-04T04:00:39;1.00;;;0.75;;
46014;SDS011;36844;51.898;-0.874;2024-02-04T04:03:04;1.50;;;0.88;;
46014;SDS011;36844;51.898;-0.874;2024-02-04T04:05:30;1.73;;;1.00;;
46014;SDS011;36844;51.898;-0.874;2024-02-04T04:07:55;0.80;;;0.60;;
46014;SDS011;36844;51.898;-0.874;2024-02-04T04:10:21;1.80;;;1.05;;
46014;SDS011;36844;51.898;-0.874;2024-02-04T04:12:46;0.98;;;0.80;;
46014;SDS011;36844;51.898;-0.874;2024-02-04T04:15:11;1.45;;;0.95;;
46014;SDS011;36844;51.898;-0.874;2024-02-04T04:17:37;2.58;;;0.90;;
46014;SDS011;36844;51.898;-0.874;2024-02-04T04:20:03;1.55;;;1.00;;
46014;SDS011;36844;51.898;-0.874;2024-02-04T04:22:29;1.55;;;1.10;;
46014;SDS011;36844;51.898;-0.874;2024-02-04T04:24:55;1.67;;;0.80;;
46014;SDS011;36844;51.898;-0.874;2024-02-04T04:27:20;1.23;;;0.60;;
46014;SDS011;36844;51.898;-0.874;2024-02-04T04:29:45;1.17;;;0.60;;
46014;SDS011;36844;51.898;-0.874;2024-02-04T04:32:10;1.27;;;0.70;;
46014;SDS011;36844;51.898;-0.874;2024-02-04T04:34:36;1.02;;;0.70;;
46014;SDS011;36844;51.898;-0.874;2024-02-04T04:37:01;1.27;;;0.70;;
46014;SDS011;36844;51.898;-0.874;2024-02-04T04:39:26;1.48;;;0.95;;
46014;SDS011;36844;51.898;-0.874;2024-02-04T04:41:51;0.93;;;0.63;;
46014;SDS011;36844;51.898;-0.874;2024-02-04T04:44:17;1.38;;;0.95;;
46014;SDS011;36844;51.898;-0.874;2024-02-04T04:46:42;0.95;;;0.60;;
46014;SDS011;36844;51.898;-0.874;2024-02-04T04:49:07;1.92;;;0.82;;
46014;SDS011;36844;51.898;-0.874;2024-02-04T04:51:33;0.60;;;0.60;;
46014;SDS011;36844;51.898;-0.874;2024-02-04T04:53:58;2.53;;;1.25;;
46014;SDS011;36844;51.898;-0.874;2024-02-04T04:56:24;0.70;;;0.63;;
46014;SDS011;36844;51.898;-0.874;2024-02-04T04:58:49;0.70;;;0.47;;
46014;SDS011;36844;51.898;-0.874;2024-02-04T05:01:15;1.40;;;0.77;;
46014;SDS011;36844;51.898;-0.874;2024-02-04T05:03:41;0.80;;;0.63;;
46014;SDS011;36844;51.898;-0.874;2024-02-04T05:06:06;1.25;;;0.98;;
46014;SDS011;36844;51.898;-0.874;2024-02-04T05:08:31;0.47;;;0.32;;
46014;SDS011;36844;51.898;-0.874;2024-02-04T05:10:57;1.92;;;0.82;;
46014;SDS011;36844;51.898;-0.874;2024-02-04T05:13:22;1.02;;;0.73;;
46014;SDS011;36844;51.898;-0.874;2024-02-04T05:15:47;1.77;;;0.98;;
46014;SDS011;36844;51.898;-0.874;2024-02-04T05:18:13;0.73;;;0.47;;
46014;SDS011;36844;51.898;-0.874;2024-02-04T05:20:38;1.17;;;0.90;;
46014;SDS011;36844;51.898;-0.874;2024-02-04T05:23:03;1.20;;;0.80;;
46014;SDS011;36844;51.898;-0.874;2024-02-04T05:25:29;0.68;;;0.65;;
46014;SDS011;36844;51.898;-0.874;2024-02-04T05:27:54;1.67;;;0.60;;
46014;SDS011;36844;51.898;-0.874;2024-02-04T05:30:19;0.80;;;0.60;;
46014;SDS011;36844;51.898;-0.874;2024-02-04T05:32:45;1.20;;;0.73;;
46014;SDS011;36844;51.898;-0.874;2024-02-04T05:35:10;0.60;;;0.43;;
46014;SDS011;36844;51.898;-0.874;2024-02-04T05:37:36;0.68;;;0.50;;
46014;SDS011;36844;51.898;-0.874;2024-02-04T05:40:02;2.15;;;1.25;;
46014;SDS011;36844;51.898;-0.874;2024-02-04T05:42:28;1.00;;;0.57;;
46014;SDS011;36844;51.898;-0.874;2024-02-04T05:44:53;0.80;;;0.50;;
46014;SDS011;36844;51.898;-0.874;2024-02-04T05:47:18;1.00;;;0.70;;
46014;SDS011;36844;51.898;-0.874;2024-02-04T05:49:43;0.32;;;0.28;;
46014;SDS011;36844;51.898;-0.874;2024-02-04T05:52:09;0.88;;;0.32;;
46014;SDS011;36844;51.898;-0.874;2024-02-04T05:54:37;0.85;;;0.43;;
46014;SDS011;36844;51.898;-0.874;2024-02-04T05:57:06;0.57;;;0.47;;
46014;SDS011;36844;51.898;-0.874;2024-02-04T05:59:32;0.90;;;0.60;;
46014;SDS011;36844;51.898;-0.874;2024-02-04T06:01:58;0.63;;;0.47;;
46014;SDS011;36844;51.898;-0.874;2024-02-04T06:04:23;0.95;;;0.52;;
46014;SDS011;36844;51.898;-0.874;2024-02-04T06:06:49;0.50;;;0.40;;
46014;SDS011;36844;51.898;-0.874;2024-02-04T06:09:14;0.73;;;0.55;;
46014;SDS011;36844;51.898;-0.874;2024-02-04T06:11:40;0.60;;;0.47;;
46014;SDS011;36844;51.898;-0.874;2024-02-04T06:14:05;0.40;;;0.40;;
46014;SDS011;36844;51.898;-0.874;2024-02-04T06:16:30;1.02;;;0.63;;
46014;SDS011;36844;51.898;-0.874;2024-02-04T06:18:56;0.47;;;0.35;;
46014;SDS011;36844;51.898;-0.874;2024-02-04T06:21:23;1.05;;;0.57;;
46014;SDS011;36844;51.898;-0.874;2024-02-04T06:23:48;1.23;;;0.70;;
46014;SDS011;36844;51.898;-0.874;2024-02-04T06:26:13;0.30;;;0.20;;
46014;SDS011;36844;51.898;-0.874;2024-02-04T06:28:39;0.30;;;0.30;;
46014;SDS011;36844;51.898;-0.874;2024-02-04T06:31:04;0.82;;;0.52;;
46014;SDS011;36844;51.898;-0.874;2024-02-04T06:33:29;0.50;;;0.30;;
46014;SDS011;36844;51.898;-0.874;2024-02-04T06:35:54;0.93;;;0.25;;
46014;SDS011;36844;51.898;-0.874;2024-02-04T06:38:21;1.13;;;0.47;;
46014;SDS011;36844;51.898;-0.874;2024-02-04T06:40:46;0.63;;;0.47;;
46014;SDS011;36844;51.898;-0.874;2024-02-04T06:43:11;0.28;;;0.13;;
46014;SDS011;36844;51.898;-0.874;2024-02-04T06:45:37;0.45;;;0.43;;
46014;SDS011;36844;51.898;-0.874;2024-02-04T06:48:02;0.55;;;0.40;;
46014;SDS011;36844;51.898;-0.874;2024-02-04T06:50:28;0.40;;;0.30;;
46014;SDS011;36844;51.898;-0.874;2024-02-04T06:52:53;0.85;;;0.60;;
46014;SDS011;36844;51.898;-0.874;2024-02-04T06:55:18;0.57;;;0.47;;
46014;SDS011;36844;51.898;-0.874;2024-02-04T06:57:44;0.20;;;0.20;;
46014;SDS011;36844;51.898;-0.874;2024-02-04T07:00:09;0.70;;;0.40;;
46014;SDS011;36844;51.898;-0.874;2024-02-04T07:02:36;1.40;;;0.57;;
46014;SDS011;36844;51.898;-0.874;2024-02-04T07:05:02;1.08;;;0.68;;
46014;SDS011;36844;51.898;-0.874;2024-02-04T07:07:27;0.85;;;0.60;;
46014;SDS011;36844;51.898;-0.874;2024-02-04T07:09:53;0.52;;;0.30;;
46014;SDS011;36844;51.898;-0.874;2024-02-04T07:12:18;0.82;;;0.40;;
46014;SDS011;36844;51.898;-0.874;2024-02-04T07:14:44;1.17;;;0.40;;
46014;SDS011;36844;51.898;-0.874;2024-02-04T07:17:09;0.98;;;0.40;;
46014;SDS011;36844;51.898;-0.874;2024-02-04T07:19:36;0.30;;;0.20;;
46014;SDS011;36844;51.898;-0.874;2024-02-04T07:22:02;0.77;;;0.55;;
46014;SDS011;36844;51.898;-0.874;2024-02-04T07:24:27;2.10;;;0.43;;
46014;SDS011;36844;51.898;-0.874;2024-02-04T07:26:53;0.30;;;0.30;;
46014;SDS011;36844;51.898;-0.874;2024-02-04T07:29:18;0.77;;;0.47;;
46014;SDS011;36844;51.898;-0.874;2024-02-04T07:31:44;0.20;;;0.20;;
46014;SDS011;36844;51.898;-0.874;2024-02-04T07:34:09;0.30;;;0.30;;
46014;SDS011;36844;51.898;-0.874;2024-02-04T07:36:34;0.30;;;0.30;;
46014;SDS011;36844;51.898;-0.874;2024-02-04T07:39:00;1.15;;;0.47;;
46014;SDS011;36844;51.898;-0.874;2024-02-04T07:41:27;0.40;;;0.28;;
46014;SDS011;36844;51.898;-0.874;2024-02-04T07:43:52;0.40;;;0.40;;
46014;SDS011;36844;51.898;-0.874;2024-02-04T07:46:18;0.38;;;0.38;;
46014;SDS011;36844;51.898;-0.874;2024-02-04T07:48:43;1.45;;;0.30;;
46014;SDS011;36844;51.898;-0.874;2024-02-04T07:51:08;0.30;;;0.30;;
46014;SDS011;36844;51.898;-0.874;2024-02-04T07:53:34;0.32;;;0.32;;
46014;SDS011;36844;51.898;-0.874;2024-02-04T07:56:01;1.20;;;0.47;;
46014;SDS011;36844;51.898;-0.874;2024-02-04T07:58:28;1.13;;;0.35;;
46014;SDS011;36844;51.898;-0.874;2024-02-04T08:00:53;3.08;;;0.40;;
46014;SDS011;36844;51.898;-0.874;2024-02-04T08:03:19;0.73;;;0.38;;
46014;SDS011;36844;51.898;-0.874;2024-02-04T08:05:44;2.22;;;0.40;;
46014;SDS011;36844;51.898;-0.874;2024-02-04T08:08:09;0.43;;;0.38;;
46014;SDS011;36844;51.898;-0.874;2024-02-04T08:10:35;1.30;;;0.40;;
46014;SDS011;36844;51.898;-0.874;2024-02-04T08:13:00;0.47;;;0.32;;
46014;SDS011;36844;51.898;-0.874;2024-02-04T08:15:26;3.75;;;0.90;;
46014;SDS011;36844;51.898;-0.874;2024-02-04T08:17:51;1.23;;;0.22;;
46014;SDS011;36844;51.898;-0.874;2024-02-04T08:20:17;2.22;;;0.45;;
46014;SDS011;36844;51.898;-0.874;2024-02-04T08:22:43;1.05;;;0.57;;
46014;SDS011;36844;51.898;-0.874;2024-02-04T08:25:08;2.20;;;0.40;;
46014;SDS011;36844;51.898;-0.874;2024-02-04T08:27:36;0.50;;;0.22;;
46014;SDS011;36844;51.898;-0.874;2024-02-04T08:30:02;1.42;;;0.40;;
46014;SDS011;36844;51.898;-0.874;2024-02-04T08:32:28;0.20;;;0.20;;
46014;SDS011;36844;51.898;-0.874;2024-02-04T08:34:53;0.47;;;0.38;;
46014;SDS011;36844;51.898;-0.874;2024-02-04T08:37:18;0.80;;;0.50;;
46014;SDS011;36844;51.898;-0.874;2024-02-04T08:39:45;2.05;;;0.88;;
46014;SDS011;36844;51.898;-0.874;2024-02-04T08:42:10;1.05;;;0.38;;
46014;SDS011;36844;51.898;-0.874;2024-02-04T08:44:35;0.45;;;0.30;;
46014;SDS011;36844;51.898;-0.874;2024-02-04T08:47:01;0.50;;;0.40;;
46014;SDS011;36844;51.898;-0.874;2024-02-04T08:49:26;0.73;;;0.32;;
46014;SDS011;36844;51.898;-0.874;2024-02-04T08:51:52;3.38;;;0.38;;
46014;SDS011;36844;51.898;-0.874;2024-02-04T08:54:17;0.73;;;0.55;;
46014;SDS011;36844;51.898;-0.874;2024-02-04T08:56:42;0.68;;;0.20;;
46014;SDS011;36844;51.898;-0.874;2024-02-04T08:59:08;0.30;;;0.20;;
46014;SDS011;36844;51.898;-0.874;2024-02-04T09:01:33;1.02;;;0.40;;
46014;SDS011;36844;51.898;-0.874;2024-02-04T09:03:58;0.50;;;0.17;;
46014;SDS011;36844;51.898;-0.874;2024-02-04T09:06:24;0.22;;;0.13;;
46014;SDS011;36844;51.898;-0.874;2024-02-04T09:08:49;1.50;;;0.68;;
46014;SDS011;36844;51.898;-0.874;2024-02-04T09:11:14;0.15;;;0.15;;
46014;SDS011;36844;51.898;-0.874;2024-02-04T09:13:44;0.20;;;0.20;;
46014;SDS011;36844;51.898;-0.874;2024-02-04T09:16:10;0.40;;;0.40;;
46014;SDS011;36844;51.898;-0.874;2024-02-04T09:18:35;0.43;;;0.32;;
46014;SDS011;36844;51.898;-0.874;2024-02-04T09:21:01;1.30;;;0.40;;
46014;SDS011;36844;51.898;-0.874;2024-02-04T09:23:27;0.95;;;0.40;;
46014;SDS011;36844;51.898;-0.874;2024-02-04T09:25:52;0.32;;;0.20;;
46014;SDS011;36844;51.898;-0.874;2024-02-04T09:28:17;0.20;;;0.20;;
46014;SDS011;36844;51.898;-0.874;2024-02-04T09:30:43;0.50;;;0.30;;
46014;SDS011;36844;51.898;-0.874;2024-02-04T09:33:08;0.57;;;0.40;;
46014;SDS011;36844;51.898;-0.874;2024-02-04T09:35:33;1.08;;;0.50;;
46014;SDS011;36844;51.898;-0.874;2024-02-04T09:37:59;0.20;;;0.20;;
46014;SDS011;36844;51.898;-0.874;2024-02-04T09:40:25;0.25;;;0.20;;
46014;SDS011;36844;51.898;-0.874;2024-02-04T09:42:50;0.77;;;0.45;;
46014;SDS011;36844;51.898;-0.874;2024-02-04T09:45:17;0.45;;;0.20;;
46014;SDS011;36844;51.898;-0.874;2024-02-04T09:47:42;1.40;;;0.80;;
46014;SDS011;36844;51.898;-0.874;2024-02-04T09:50:09;0.17;;;0.10;;
46014;SDS011;36844;51.898;-0.874;2024-02-04T09:52:35;2.20;;;0.20;;
46014;SDS011;36844;51.898;-0.874;2024-02-04T09:55:06;3.80;;;0.30;;
46014;SDS011;36844;51.898;-0.874;2024-02-04T09:57:33;2.13;;;0.40;;
46014;SDS011;36844;51.898;-0.874;2024-02-04T10:00:01;0.63;;;0.40;;
46014;SDS011;36844;51.898;-0.874;2024-02-04T10:02:29;0.38;;;0.30;;
46014;SDS011;36844;51.898;-0.874;2024-02-04T10:04:57;0.95;;;0.28;;
46014;SDS011;36844;51.898;-0.874;2024-02-04T10:07:22;0.95;;;0.40;;
46014;SDS011;36844;51.898;-0.874;2024-02-04T10:09:49;0.30;;;0.30;;
46014;SDS011;36844;51.898;-0.874;2024-02-04T10:12:15;1.08;;;0.20;;
46014;SDS011;36844;51.898;-0.874;2024-02-04T10:14:40;1.67;;;0.70;;
46014;SDS011;36844;51.898;-0.874;2024-02-04T10:17:05;0.65;;;0.50;;
46014;SDS011;36844;51.898;-0.874;2024-02-04T10:19:31;0.70;;;0.38;;
46014;SDS011;36844;51.898;-0.874;2024-02-04T10:21:57;0.47;;;0.47;;
46014;SDS011;36844;51.898;-0.874;2024-02-04T10:24:27;0.75;;;0.55;;
46014;SDS011;36844;51.898;-0.874;2024-02-04T10:26:53;0.47;;;0.28;;
46014;SDS011;36844;51.898;-0.874;2024-02-04T10:29:20;2.53;;;0.60;;
46014;SDS011;36844;51.898;-0.874;2024-02-04T10:31:46;3.13;;;0.50;;
46014;SDS011;36844;51.898;-0.874;2024-02-04T10:34:11;1.60;;;0.57;;
46014;SDS011;36844;51.898;-0.874;2024-02-04T10:36:37;2.88;;;1.00;;
46014;SDS011;36844;51.898;-0.874;2024-02-04T10:39:03;1.75;;;1.05;;
46014;SDS011;36844;51.898;-0.874;2024-02-04T10:41:29;1.30;;;0.60;;
46014;SDS011;36844;51.898;-0.874;2024-02-04T10:43:56;1.70;;;0.80;;
46014;SDS011;36844;51.898;-0.874;2024-02-04T10:46:23;10.18;;;2.30;;
46014;SDS011;36844;51.898;-0.874;2024-02-04T10:48:55;3.35;;;0.98;;
46014;SDS011;36844;51.898;-0.874;2024-02-04T10:51:24;3.47;;;1.00;;
46014;SDS011;36844;51.898;-0.874;2024-02-04T10:53:53;6.47;;;0.90;;
46014;SDS011;36844;51.898;-0.874;2024-02-04T10:56:30;4.38;;;0.90;;
46014;SDS011;36844;51.898;-0.874;2024-02-04T10:58:59;3.92;;;0.90;;
46014;SDS011;36844;51.898;-0.874;2024-02-04T11:01:27;2.35;;;0.80;;
46014;SDS011;36844;51.898;-0.874;2024-02-04T11:03:53;1.50;;;0.90;;
46014;SDS011;36844;51.898;-0.874;2024-02-04T11:06:20;3.90;;;1.35;;
46014;SDS011;36844;51.898;-0.874;2024-02-04T11:08:47;3.25;;;0.90;;
46014;SDS011;36844;51.898;-0.874;2024-02-04T11:11:12;3.55;;;0.98;;
46014;SDS011;36844;51.898;-0.874;2024-02-04T11:13:38;3.53;;;0.75;;
46014;SDS011;36844;51.898;-0.874;2024-02-04T11:16:11;7.93;;;1.00;;
46014;SDS011;36844;51.898;-0.874;2024-02-04T11:27:12;8.52;;;3.65;;
46014;SDS011;36844;51.898;-0.874;2024-02-04T11:29:38;7.70;;;4.25;;
46014;SDS011;36844;51.898;-0.874;2024-02-04T11:32:05;7.18;;;4.03;;
46014;SDS011;36844;51.898;-0.874;2024-02-04T11:34:31;7.72;;;4.50;;
46014;SDS011;36844;51.898;-0.874;2024-02-04T11:36:57;7.07;;;4.32;;
46014;SDS011;36844;51.898;-0.874;2024-02-04T11:39:23;8.00;;;4.68;;
46014;SDS011;36844;51.898;-0.874;2024-02-04T11:41:50;7.78;;;3.88;;
46014;SDS011;36844;51.898;-0.874;2024-02-04T11:44:22;8.45;;;3.72;;
46014;SDS011;36844;51.898;-0.874;2024-02-04T11:49:19;3.45;;;2.70;;
46014;SDS011;36844;51.898;-0.874;2024-02-04T11:51:51;6.40;;;3.22;;
46014;SDS011;36844;51.898;-0.874;2024-02-04T11:54:17;6.05;;;3.20;;
46014;SDS011;36844;51.898;-0.874;2024-02-04T11:56:46;6.13;;;2.97;;
46014;SDS011;36844;51.898;-0.874;2024-02-04T11:59:18;9.20;;;3.55;;
46014;SDS011;36844;51.898;-0.874;2024-02-04T12:01:45;7.25;;;2.50;;
46014;SDS011;36844;51.898;-0.874;2024-02-04T12:04:17;4.60;;;2.70;;
46014;SDS011;36844;51.898;-0.874;2024-02-04T12:06:43;5.65;;;2.55;;
46014;SDS011;36844;51.898;-0.874;2024-02-04T12:09:08;4.05;;;2.33;;
46014;SDS011;36844;51.898;-0.874;2024-02-04T12:11:38;3.38;;;2.38;;
46014;SDS011;36844;51.898;-0.874;2024-02-04T12:14:04;3.88;;;2.40;;
46014;SDS011;36844;51.898;-0.874;2024-02-04T12:16:31;3.40;;;2.22;;
46014;SDS011;36844;51.898;-0.874;2024-02-04T12:18:58;3.17;;;2.42;;
46014;SDS011;36844;51.898;-0.874;2024-02-04T12:21:24;3.78;;;2.22;;
46014;SDS011;36844;51.898;-0.874;2024-02-04T12:23:50;2.80;;;2.10;;
46014;SDS011;36844;51.898;-0.874;2024-02-04T12:26:16;4.43;;;2.42;;
46014;SDS011;36844;51.898;-0.874;2024-02-04T12:28:42;8.10;;;2.42;;
46014;SDS011;36844;51.898;-0.874;2024-02-04T12:31:07;3.10;;;1.98;;
46014;SDS011;36844;51.898;-0.874;2024-02-04T12:33:40;8.20;;;2.33;;
46014;SDS011;36844;51.898;-0.874;2024-02-04T12:36:06;4.97;;;2.13;;
46014;SDS011;36844;51.898;-0.874;2024-02-04T12:38:32;5.68;;;1.70;;
46014;SDS011;36844;51.898;-0.874;2024-02-04T12:41:01;3.70;;;2.40;;
46014;SDS011;36844;51.898;-0.874;2024-02-04T12:43:27;2.13;;;1.58;;
46014;SDS011;36844;51.898;-0.874;2024-02-04T12:45:55;5.75;;;2.03;;
46014;SDS011;36844;51.898;-0.874;2024-02-04T12:48:21;5.40;;;1.27;;
46014;SDS011;36844;51.898;-0.874;2024-02-04T12:50:48;4.50;;;1.60;;
46014;SDS011;36844;51.898;-0.874;2024-02-04T12:53:13;6.78;;;1.50;;
46014;SDS011;36844;51.898;-0.874;2024-02-04T12:55:40;2.80;;;1.20;;
46014;SDS011;36844;51.898;-0.874;2024-02-04T12:58:08;4.35;;;1.20;;
46014;SDS011;36844;51.898;-0.874;2024-02-04T13:00:37;5.88;;;1.60;;
46014;SDS011;36844;51.898;-0.874;2024-02-04T13:03:03;2.60;;;1.50;;
46014;SDS011;36844;51.898;-0.874;2024-02-04T13:05:30;2.90;;;1.45;;
46014;SDS011;36844;51.898;-0.874;2024-02-04T13:07:57;1.75;;;1.05;;
46014;SDS011;36844;51.898;-0.874;2024-02-04T13:10:27;5.78;;;1.10;;
46014;SDS011;36844;51.898;-0.874;2024-02-04T13:12:59;4.38;;;1.15;;
46014;SDS011;36844;51.898;-0.874;2024-02-04T13:15:28;3.10;;;1.10;;
46014;SDS011;36844;51.898;-0.874;2024-02-04T13:17:54;5.53;;;1.20;;
46014;SDS011;36844;51.898;-0.874;2024-02-04T13:20:21;2.53;;;0.90;;
46014;SDS011;36844;51.898;-0.874;2024-02-04T13:22:47;1.77;;;1.00;;
46014;SDS011;36844;51.898;-0.874;2024-02-04T13:25:12;2.78;;;1.20;;
46014;SDS011;36844;51.898;-0.874;2024-02-04T13:27:37;1.77;;;0.80;;
46014;SDS011;36844;51.898;-0.874;2024-02-04T13:30:03;1.77;;;1.02;;
46014;SDS011;36844;51.898;-0.874;2024-02-04T13:32:29;1.50;;;0.82;;
46014;SDS011;36844;51.898;-0.874;2024-02-04T13:34:54;1.67;;;1.02;;
46014;SDS011;36844;51.898;-0.874;2024-02-04T13:37:20;0.77;;;0.75;;
46014;SDS011;36844;51.898;-0.874;2024-02-04T13:39:46;0.98;;;0.80;;
46014;SDS011;36844;51.898;-0.874;2024-02-04T13:42:11;1.60;;;1.08;;
46014;SDS011;36844;51.898;-0.874;2024-02-04T13:44:37;0.85;;;0.80;;
46014;SDS011;36844;51.898;-0.874;2024-02-04T13:47:02;1.48;;;0.80;;
46014;SDS011;36844;51.898;-0.874;2024-02-04T13:49:27;2.15;;;0.95;;
46014;SDS011;36844;51.898;-0.874;2024-02-04T13:51:53;5.15;;;1.00;;
46014;SDS011;36844;51.898;-0.874;2024-02-04T13:54:18;2.22;;;1.10;;
46014;SDS011;36844;51.898;-0.874;2024-02-04T13:56:44;0.68;;;0.50;;
46014;SDS011;36844;51.898;-0.874;2024-02-04T13:59:10;2.20;;;1.17;;
46014;SDS011;36844;51.898;-0.874;2024-02-04T14:01:36;2.10;;;0.60;;
46014;SDS011;36844;51.898;-0.874;2024-02-04T14:04:01;2.05;;;0.70;;
46014;SDS011;36844;51.898;-0.874;2024-02-04T14:06:26;1.23;;;0.73;;
46014;SDS011;36844;51.898;-0.874;2024-02-04T14:08:51;1.77;;;0.70;;
46014;SDS011;36844;51.898;-0.874;2024-02-04T14:11:17;0.63;;;0.63;;
46014;SDS011;36844;51.898;-0.874;2024-02-04T14:13:43;1.25;;;0.73;;
46014;SDS011;36844;51.898;-0.874;2024-02-04T14:16:08;0.95;;;0.70;;
46014;SDS011;36844;51.898;-0.874;2024-02-04T14:18:34;0.40;;;0.40;;
46014;SDS011;36844;51.898;-0.874;2024-02-04T14:20:59;1.17;;;0.40;;
46014;SDS011;36844;51.898;-0.874;2024-02-04T14:23:25;1.75;;;0.68;;
46014;SDS011;36844;51.898;-0.874;2024-02-04T14:25:50;1.13;;;0.60;;
46014;SDS011;36844;51.898;-0.874;2024-02-04T14:28:16;0.82;;;0.63;;
46014;SDS011;36844;51.898;-0.874;2024-02-04T14:30:41;0.45;;;0.40;;
46014;SDS011;36844;51.898;-0.874;2024-02-04T14:33:06;4.25;;;0.93;;
46014;SDS011;36844;51.898;-0.874;2024-02-04T14:35:33;3.80;;;0.70;;
46014;SDS011;36844;51.898;-0.874;2024-02-04T14:37:58;1.45;;;0.68;;
46014;SDS011;36844;51.898;-0.874;2024-02-04T14:40:24;1.30;;;0.63;;
46014;SDS011;36844;51.898;-0.874;2024-02-04T14:42:49;1.60;;;0.43;;